Virtual Norwegian is not affiliated with Norwegian Air Shuttle in any way.
If you are looking for the real "Norwegian", or you wish to book Norwegian flights, please visit Norwegian.com


We use cookies to ensure you get the best experience on our website.   ACCEPT

EFRO - RVN - Rovaniemi (Rovaniemi)

General Info Alternate Airport
ICAO: EFRO Elevation: 642 ft ICAO: EFOU
IATA: RVN Country: Finland IATA: OUL
City: Rovaniemi Charts: Log in to view charts City: Oulu
Name: Rovaniemi Hub: No Name Oulu
General Info
ICAO: EFRO
IATA: RVN
City: Rovaniemi
Name: Rovaniemi
Elevation: 642 ft
Country: Finland
Charts: Log in to view charts
Hub: No
 
Alternate Airport
ICAO: EFOU
IATA: OUL
City: Oulu
Name: Oulu

Weather
192250Z AUTO 04004KT CAVOK 12/07 Q1011
Weather
192250Z AUTO 04004KT CAVOK 12/07 Q1011

Runway Info
03
Length ILS/LOC Heading
3002 m N/A 037
21
Length ILS/LOC Course
3002 m 111.70 207

NOTAMs
NOTAMs currently unavailable.
NOTAMs
NOTAMs currently unavailable

Route map
Airport
Airport (hub)